METAR stanice u blizini

 

LYBE - Beograd / Surčin, Srbija
Ažurirano: 15/05/2021 04:30
Mist, Delimično oblačno
Mist, Delimično oblačno
 Pravac vetra JI
Vetar: JI 4 km/h
Temperatura: 12°C
Tačka rose: 12°C
Vlažnost: 100%
Pritisak: 1010 hPa
Pregled: Mist
Oblaci: Partly Cloudy
Vidljivost: 5 km
2021/05/15 02:30 LYBE 150230Z 14002KT 5000 BR NSC 12/12 Q1010 NOSIG
LYBT - Beograd / Batajnica, Srbija
Ažurirano: 15/05/2021 04:30
Vedro
Vedro
 Pravac vetra varies
Vetar: varies 4 km/h
Temperatura: 10°C
Tačka rose: 10°C
Vlažnost: 100%
Pritisak: 1010 hPa
Pregled: Vedro
Vidljivost: greater than 10 km
2021/05/15 02:30 LYBT 150230Z VRB02KT CAVOK 10/10 Q1010 NOSIG
LYVR - Vršac, Srbija
Ažurirano: 15/05/2021 04:30
Vedro
Vedro
 Pravac vetra I
Vetar: I 6 km/h
Temperatura: 10°C
Tačka rose: 9°C
Vlažnost: 94%
Pritisak: 1010 hPa
Pregled: Vedro
Vidljivost: greater than 10 km
2021/05/15 02:30 LYVR 150230Z AUTO 09003KT CAVOK 10/09 Q1010
 
LYKV - Lađevci, Srbija
Ažurirano: 15/05/2021 04:30
Vedro
Vedro
 Pravac vetra calm
Vetar: Tišina
Temperatura: 7°C
Tačka rose: 7°C
Vlažnost: 100%
Pritisak: 1011 hPa
Pregled: Vedro
Vidljivost: greater than 10 km
2021/05/15 02:30 LYKV 150230Z 00000KT CAVOK 07/07 Q1011 NOSIG
LYNI - Niš, Srbija
Ažurirano: 15/05/2021 04:30
Vedro
Vedro
 Pravac vetra IJI
Vetar: IJI 6 km/h
Temperatura: 10°C
Tačka rose: 8°C
Vlažnost: 88%
Pritisak: 1011 hPa
Pregled: Vedro
Vidljivost: greater than 10 km
2021/05/15 02:30 LYNI 150230Z 12003KT CAVOK 10/08 Q1011 NOSIG
BKPR - Priština, Srbija
Ažurirano: 15/05/2021 05:00
Mostly Cloudy
Mostly Cloudy
 Pravac vetra varies
Vetar: varies 6 km/h
Temperatura: 9°C
Tačka rose: 7°C
Vlažnost: 87%
Pritisak: 1012 hPa
Oblaci: Mostly Cloudy
Vidljivost: 10 km
Cloud details: Mostly Cloudy 2134 m
2021/05/15 03:00 BKPR 150300Z VRB03KT 9999 BKN070 09/07 Q1012 NOSIG
 
LHPP - Pecs / Pogany, Hungary
Ažurirano: 14/05/2021 19:45
NOT Current
Few Clouds
Few Clouds
 Pravac vetra SI
Vetar: SI 9 km/h
Temperatura: 15°C
Tačka rose: 10°C
Vlažnost: 72%
Pritisak: 1009 hPa
Oblaci: Few Clouds
Vidljivost: 10 km
Cloud details: Few Clouds 1402 m
2021/05/14 17:45 LHPP 141745Z 04005KT 9999 FEW046 15/10 Q1009
LHUD - Szeged, Hungary
Ažurirano: 04/07/2019 01:45
NOT Current
Vedro
Vedro
 Pravac vetra S
Vetar: S 7 km/h
Temperatura: 18°C
Tačka rose: 13°C
Vlažnost: 73%
Pritisak: 1019 hPa
Pregled: Vedro
Vidljivost: greater than 10 km
2019/07/03 23:45 LHUD 032345Z 35004KT CAVOK 18/13 Q1019
LRTR - Timisoara, Romania
Ažurirano: 15/05/2021 04:30
Vedro
Vedro
 Pravac vetra I
Vetar: I 9 km/h
Temperatura: 10°C
Osećaj hladnoće: 9°C
Tačka rose: 10°C
Vlažnost: 100%
Pritisak: 1010 hPa
Pregled: Vedro
Vidljivost: greater than 10 km
2021/05/15 02:30 LRTR 150230Z 10005KT CAVOK 10/10 Q1010 R11/290095 NOSIG
 
LRCV - Craiova, Romania
Ažurirano: 15/05/2021 04:30
Vedro
Vedro
 Pravac vetra SSI
Vetar: SSI 9 km/h
Temperatura: 9°C
Osećaj hladnoće: 7°C
Tačka rose: 8°C
Vlažnost: 94%
Pritisak: 1011 hPa
Pregled: Vedro
Vidljivost: greater than 10 km
2021/05/15 02:30 LRCV 150230Z 03005KT CAVOK 09/08 Q1011
LBSF - Sofia, Bulgaria
Ažurirano: 15/05/2021 04:30
Partly Cloudy
Partly Cloudy
 Pravac vetra varies
Vetar: varies 4 km/h
Temperatura: 6°C
Tačka rose: 5°C
Vlažnost: 93%
Pritisak: 1013 hPa
Oblaci: Partly Cloudy
Vidljivost: 10 km
Cloud details: Partly Cloudy 2377 m
2021/05/15 02:30 LBSF 150230Z VRB02KT 9999 SCT078 06/05 Q1013 NOSIG
LWSK - Skoplje, Makedonija
Ažurirano: 15/05/2021 04:30
Vedro
Vedro
 Pravac vetra calm
Vetar: Tišina
Temperatura: 10°C
Tačka rose: 9°C
Vlažnost: 94%
Pritisak: 1012 hPa
Pregled: Vedro
Vidljivost: greater than 10 km
2021/05/15 02:30 LWSK 150230Z 00000KT CAVOK 10/09 Q1012 NOSIG
 
LYPG - Podgorica, Crna Gora
Ažurirano: 15/05/2021 04:30
Oblačno
Oblačno
 Pravac vetra JJI
Vetar: JJI 24 km/h
Temperatura: 16°C
Tačka rose: 12°C
Vlažnost: 77%
Pritisak: 1010 hPa
Oblaci: Oblačno
Vidljivost: 10 km
Cloud details: Few Clouds 1036 m
Partly Cloudy 1219 m
Oblačno 2134 m
2021/05/15 02:30 LYPG 150230Z 15013KT 120V180 9999 FEW034 SCT040 OVC070 16/12 Q1010 NOSIG
LQSA - Sarajevo, Bosna i Hercegovina
Ažurirano: 15/05/2021 04:00
Slaba kiša, Pretežno oblačno
Slaba kiša, Pretežno oblačno
 Pravac vetra varies
Vetar: varies 4 km/h
Temperatura: 10°C
Tačka rose: 8°C
Vlažnost: 88%
Pritisak: 1010 hPa
Pregled: Light Rain
Oblaci: Mostly Cloudy
Vidljivost: 10 km
Cloud details: Partly Cloudy 1524 m
Mostly Cloudy 2134 m
2021/05/15 02:00 LQSA 150200Z VRB02KT 9999 -RA SCT050 BKN070 10/08 Q1010
LDOS - Osijek, Hrvatksa
Ažurirano: 15/05/2021 04:30
Vedro
Vedro
 Pravac vetra I
Vetar: I 9 km/h
Temperatura: 9°C
Osećaj hladnoće: 7°C
Tačka rose: 9°C
Vlažnost: 100%
Pritisak: 1010 hPa
Pregled: Vedro
Vidljivost: greater than 10 km
2021/05/15 02:30 LDOS 150230Z 09005KT CAVOK 09/09 Q1010